Choconut Center, New York
Current Conditions -  °F | °C
As of 4:53 PM on Friday 28 Nov 2014 (Local Time) from KBGM Reporting Station
Clear Clear  
Wind Chill: 18°   Ceiling: Unl
Heat Index: 26°   Visibility: 10mi
Dew Point:   Wind: 7mph
Humidity: 47%   Direction: 310°NW
Pressure: 30.14"   Gusts: NA
Location:  42.1759°N, 75.9402°W
Report Text: KBGM 282153Z 31006KT 10SM CLR M03/M13 A3014 RMK AO2 SLP226 T10331133
Loading
Personal Weather Stations






























Interactive Weather Map New forecast layout! Learn more

10-Day Weather Forecast

Advertisements
Track Severe Weather on mobile